Terminal Aerodrome Forecast
Issued by NWS Cleveland, OH

Home | Current Version | Previous Version | Text Only | Print | Product List | Glossary On
Versions: 1 2 3 4 5 6 7 8 9 10 11 12 13 14 15 16 17 18 19
819
FTUS41 KCLE 041320 AAA
TAFERI
TAF AMD
KERI 041320Z 0413/0512 VRB06KT P6SM OVC035
      TEMPO 0413/0415 5SM -RA BR OVC030
     FM050300 16010KT 6SM -RASN BKN025
     FM050500 18010KT 4SM -RASN BKN025 OVC040
     FM050900 25010KT P6SM VCSH BKN025=

USA.gov is the U.S. government's official web portal to all federal, state and local government web resources and services.